Time;durP1;ratioP1;P1;durP2;ratioP2;P2;SDS_P1;SDS_P2;PMS_P1;PMS_P2;Temp;Humidity;BMP_temperature;BMP_pressure;BME280_temperature;BME280_humidity;BME280_pressure;Samples;Min_cycle;Max_cycle;Signal;HPM_P1;HPM_P2
2022/05/07 00:00:48;;;;;;;76.43;15.57;;;;;;;;;;5010339;28;20037;-55
2022/05/07 00:03:16;;;;;;;79.82;17.45;;;;;;;;;;5009491;28;20037;-56
2022/05/07 00:05:43;;;;;;;74.18;15.52;;;;;;;;;;5008943;28;20045;-54
2022/05/07 00:08:10;;;;;;;79.47;15.70;;;;;;;;;;5011093;28;20038;-56
2022/05/07 00:10:37;;;;;;;74.55;15.48;;;;;;;;;;5011503;28;20030;-54
2022/05/07 00:13:04;;;;;;;70.03;15.13;;;;;;;;;;5010206;28;20116;-53
2022/05/07 00:15:32;;;;;;;77.55;15.27;;;;;;;;;;5009054;28;20835;-56
2022/05/07 00:18:03;;;;;;;73.10;16.02;;;;;;;;;;5010850;28;20033;-57
2022/05/07 00:20:31;;;;;;;85.57;16.50;;;;;;;;;;5010776;28;20034;-56
2022/05/07 00:22:58;;;;;;;79.22;16.38;;;;;;;;;;5009488;28;20172;-57
2022/05/07 00:25:26;;;;;;;80.32;15.73;;;;;;;;;;5011114;28;20026;-56
2022/05/07 00:27:53;;;;;;;73.60;15.95;;;;;;;;;;5014905;28;20026;-56
2022/05/07 00:30:20;;;;;;;74.72;15.98;;;;;;;;;;5014225;28;20423;-52
2022/05/07 00:32:47;;;;;;;80.72;18.27;;;;;;;;;;5014579;28;20050;-56
2022/05/07 00:35:15;;;;;;;85.25;16.33;;;;;;;;;;5014815;28;20511;-52
2022/05/07 00:37:42;;;;;;;86.03;17.65;;;;;;;;;;5014212;28;20113;-57
2022/05/07 00:40:09;;;;;;;78.00;16.92;;;;;;;;;;4996545;28;20069;-52
2022/05/07 00:42:38;;;;;;;65.90;16.33;;;;;;;;;;4997362;28;20512;-54
2022/05/07 00:45:05;;;;;;;74.68;17.15;;;;;;;;;;5013097;28;20037;-51
2022/05/07 00:47:32;;;;;;;85.43;16.27;;;;;;;;;;5014622;28;20029;-50
2022/05/07 00:52:46;;;;;;;79.50;17.75;;;;;;;;;;5014189;28;20100;-53
2022/05/07 00:55:13;;;;;;;82.82;18.77;;;;;;;;;;5013947;28;20053;-54
2022/05/07 00:57:40;;;;;;;88.05;22.13;;;;;;;;;;5014884;28;20056;-51
2022/05/07 01:00:08;;;;;;;93.45;21.02;;;;;;;;;;5013626;28;20030;-49
2022/05/07 01:02:39;;;;;;;104.82;21.33;;;;;;;;;;5013958;28;20060;-54
2022/05/07 01:05:07;;;;;;;108.85;22.85;;;;;;;;;;5014192;28;20030;-55
2022/05/07 01:07:34;;;;;;;87.78;22.67;;;;;;;;;;5014126;28;20037;-53
2022/05/07 01:10:02;;;;;;;97.22;25.55;;;;;;;;;;4996304;28;20045;-55
2022/05/07 01:12:29;;;;;;;142.90;35.75;;;;;;;;;;5014141;28;20411;-55
2022/05/07 01:14:57;;;;;;;132.65;40.75;;;;;;;;;;5013920;28;20044;-51
2022/05/07 01:17:24;;;;;;;140.48;40.25;;;;;;;;;;5014540;28;20048;-51
2022/05/07 01:19:55;;;;;;;148.52;40.67;;;;;;;;;;5013201;28;20044;-48
2022/05/07 01:22:22;;;;;;;137.82;36.97;;;;;;;;;;5014484;28;20088;-59
2022/05/07 01:24:49;;;;;;;133.43;36.75;;;;;;;;;;5015557;28;20084;-51
2022/05/07 01:27:16;;;;;;;123.60;34.83;;;;;;;;;;5014083;28;20021;-51
2022/05/07 01:29:43;;;;;;;127.03;33.90;;;;;;;;;;5012037;28;20032;-57
2022/05/07 01:32:10;;;;;;;130.55;34.10;;;;;;;;;;5014326;28;20025;-51
2022/05/07 01:34:37;;;;;;;124.00;34.55;;;;;;;;;;5012873;28;20034;-54
2022/05/07 01:37:05;;;;;;;118.43;34.53;;;;;;;;;;5011419;28;20093;-51
2022/05/07 01:39:32;;;;;;;124.70;32.38;;;;;;;;;;4994787;28;20504;-53
2022/05/07 01:41:59;;;;;;;127.15;33.33;;;;;;;;;;5012003;28;20118;-57
2022/05/07 01:44:26;;;;;;;124.82;32.75;;;;;;;;;;5010601;28;20077;-57
2022/05/07 01:49:38;;;;;;;122.68;31.38;;;;;;;;;;5012250;28;20087;-54
2022/05/07 01:52:05;;;;;;;115.28;31.45;;;;;;;;;;4993624;28;20029;-51
2022/05/07 01:54:32;;;;;;;101.07;29.65;;;;;;;;;;5011778;28;20101;-56
2022/05/07 01:56:59;;;;;;;121.95;30.70;;;;;;;;;;4995851;28;20471;-49
2022/05/07 01:59:26;;;;;;;101.95;30.40;;;;;;;;;;5012423;28;20026;-57
2022/05/07 02:01:53;;;;;;;96.20;29.95;;;;;;;;;;5012118;28;20037;-56
2022/05/07 02:04:20;;;;;;;102.00;29.55;;;;;;;;;;5012586;28;20029;-57
2022/05/07 02:06:47;;;;;;;111.93;30.27;;;;;;;;;;5012013;28;20087;-54
2022/05/07 02:09:14;;;;;;;118.90;31.00;;;;;;;;;;5010661;28;20369;-54
2022/05/07 02:11:41;;;;;;;100.82;30.60;;;;;;;;;;5012450;28;20026;-53
2022/05/07 02:14:09;;;;;;;110.50;31.10;;;;;;;;;;4994791;28;20044;-56
2022/05/07 02:16:36;;;;;;;105.35;30.15;;;;;;;;;;5011496;28;20037;-56
2022/05/07 02:19:03;;;;;;;100.97;29.88;;;;;;;;;;4994251;28;20444;-51
2022/05/07 02:21:30;;;;;;;93.78;30.77;;;;;;;;;;4995117;28;20022;-57
2022/05/07 02:23:57;;;;;;;100.72;30.33;;;;;;;;;;5012322;28;20473;-51
2022/05/07 02:26:24;;;;;;;95.13;29.55;;;;;;;;;;5012440;28;20037;-51
2022/05/07 02:28:51;;;;;;;102.95;29.65;;;;;;;;;;5011952;28;20554;-51
2022/05/07 02:31:18;;;;;;;115.95;31.65;;;;;;;;;;5013009;28;20495;-54
2022/05/07 02:33:45;;;;;;;95.78;30.38;;;;;;;;;;4994370;28;20409;-52
2022/05/07 02:36:12;;;;;;;99.07;29.23;;;;;;;;;;5012791;28;20058;-53
2022/05/07 02:38:40;;;;;;;90.85;27.75;;;;;;;;;;5008691;28;20409;-53
2022/05/07 02:43:52;;;;;;;99.70;26.80;;;;;;;;;;4993448;28;20069;-58
2022/05/07 02:46:19;;;;;;;84.57;26.45;;;;;;;;;;4992237;28;20050;-59
2022/05/07 02:48:46;;;;;;;102.53;28.83;;;;;;;;;;4991464;28;20030;-58
2022/05/07 02:51:13;;;;;;;92.30;28.27;;;;;;;;;;4992843;28;20030;-54
2022/05/07 02:53:41;;;;;;;90.85;27.98;;;;;;;;;;4992276;28;20034;-57
2022/05/07 02:56:08;;;;;;;94.53;27.40;;;;;;;;;;5004265;28;20030;-59
2022/05/07 02:58:35;;;;;;;101.68;30.33;;;;;;;;;;5011690;28;20120;-47
2022/05/07 03:01:02;;;;;;;90.63;29.15;;;;;;;;;;4993771;28;20100;-56
2022/05/07 03:03:29;;;;;;;94.60;27.35;;;;;;;;;;5011729;28;20021;-52
2022/05/07 03:05:59;;;;;;;86.35;27.15;;;;;;;;;;5012934;28;20104;-49
2022/05/07 03:08:26;;;;;;;92.15;28.83;;;;;;;;;;5012588;28;20056;-53
2022/05/07 03:10:53;;;;;;;81.30;28.52;;;;;;;;;;4994157;28;20847;-56
2022/05/07 03:13:20;;;;;;;86.38;27.63;;;;;;;;;;5013001;28;20021;-57
2022/05/07 03:15:47;;;;;;;85.63;29.65;;;;;;;;;;5011659;28;20026;-58
2022/05/07 03:18:14;;;;;;;86.88;28.13;;;;;;;;;;5012059;28;20498;-58
2022/05/07 03:20:41;;;;;;;99.10;28.10;;;;;;;;;;5011717;28;20030;-58
2022/05/07 03:23:08;;;;;;;92.78;29.67;;;;;;;;;;5012485;28;20073;-58
2022/05/07 03:25:35;;;;;;;88.72;29.45;;;;;;;;;;4994459;28;20063;-55
2022/05/07 03:28:02;;;;;;;88.68;27.55;;;;;;;;;;4994225;28;20486;-58
2022/05/07 03:30:30;;;;;;;92.82;26.85;;;;;;;;;;4994479;28;20037;-58
2022/05/07 03:32:57;;;;;;;84.95;26.13;;;;;;;;;;4994764;28;20553;-58
2022/05/07 03:35:24;;;;;;;87.80;26.92;;;;;;;;;;5012329;28;20037;-57
2022/05/07 03:37:51;;;;;;;89.15;27.33;;;;;;;;;;5013413;28;20472;-57
2022/05/07 03:40:18;;;;;;;83.25;26.48;;;;;;;;;;5013463;28;20036;-58
2022/05/07 03:42:45;;;;;;;88.88;26.85;;;;;;;;;;5012432;28;20026;-58
2022/05/07 03:45:12;;;;;;;93.45;29.13;;;;;;;;;;5012007;28;20480;-56
2022/05/07 03:47:39;;;;;;;85.05;27.50;;;;;;;;;;5011968;28;20022;-57
2022/05/07 03:50:07;;;;;;;84.25;27.55;;;;;;;;;;4994133;28;20032;-49
2022/05/07 03:55:19;;;;;;;84.00;26.27;;;;;;;;;;5012135;28;20044;-47
2022/05/07 03:57:46;;;;;;;78.82;26.17;;;;;;;;;;5012382;28;20022;-49
2022/05/07 04:00:13;;;;;;;84.00;26.15;;;;;;;;;;5010995;28;20042;-51
2022/05/07 04:02:40;;;;;;;77.03;25.63;;;;;;;;;;4999629;28;20049;-47
2022/05/07 04:05:07;;;;;;;78.70;26.42;;;;;;;;;;4992762;28;20440;-47
2022/05/07 04:07:35;;;;;;;81.53;25.88;;;;;;;;;;4992058;28;20022;-49
2022/05/07 04:10:03;;;;;;;77.95;26.17;;;;;;;;;;4973933;28;20039;-50
2022/05/07 04:12:30;;;;;;;80.00;25.35;;;;;;;;;;4992676;28;20110;-48
2022/05/07 04:15:00;;;;;;;64.55;24.48;;;;;;;;;;4991876;28;20085;-48
2022/05/07 04:17:27;;;;;;;77.68;24.48;;;;;;;;;;4991711;28;20117;-47
2022/05/07 04:19:54;;;;;;;68.95;24.83;;;;;;;;;;4991650;28;20468;-50
2022/05/07 04:22:21;;;;;;;72.10;25.75;;;;;;;;;;4992379;28;20042;-49
2022/05/07 04:24:49;;;;;;;82.55;26.60;;;;;;;;;;4994362;28;20077;-48
2022/05/07 04:27:16;;;;;;;65.80;23.17;;;;;;;;;;5007971;28;20620;-51
2022/05/07 04:29:43;;;;;;;64.70;22.38;;;;;;;;;;4992732;28;20034;-49
2022/05/07 04:32:10;;;;;;;73.63;25.25;;;;;;;;;;4992194;28;20030;-48
2022/05/07 04:34:37;;;;;;;69.80;23.15;;;;;;;;;;4953565;28;20042;-51
2022/05/07 04:37:04;;;;;;;71.90;24.25;;;;;;;;;;4953509;28;20028;-49
2022/05/07 04:39:34;;;;;;;67.32;22.50;;;;;;;;;;4953809;28;20477;-50
2022/05/07 04:42:04;;;;;;;70.55;23.38;;;;;;;;;;4967618;28;20031;-48
2022/05/07 04:44:31;;;;;;;68.50;23.10;;;;;;;;;;4968580;28;20459;-47
2022/05/07 04:46:58;;;;;;;62.55;22.70;;;;;;;;;;4953932;28;20146;-48
2022/05/07 04:49:25;;;;;;;63.38;22.30;;;;;;;;;;4968140;28;20039;-51
2022/05/07 04:51:52;;;;;;;56.10;20.77;;;;;;;;;;4953202;28;20059;-48
2022/05/07 04:54:22;;;;;;;57.83;21.38;;;;;;;;;;4952897;28;20767;-49
2022/05/07 04:56:50;;;;;;;52.97;21.70;;;;;;;;;;4953933;28;20531;-51
2022/05/07 04:59:17;;;;;;;59.25;21.73;;;;;;;;;;4953288;28;20475;-53
2022/05/07 05:01:45;;;;;;;56.70;21.38;;;;;;;;;;4953233;28;20072;-49
2022/05/07 05:04:12;;;;;;;60.17;20.40;;;;;;;;;;4952752;28;20038;-52
2022/05/07 05:06:39;;;;;;;67.93;22.15;;;;;;;;;;4954109;28;20023;-54
2022/05/07 05:09:07;;;;;;;59.72;21.08;;;;;;;;;;4954771;28;20125;-47
2022/05/07 05:11:34;;;;;;;57.17;21.38;;;;;;;;;;4955785;28;20031;-53
2022/05/07 05:15:01;;;;;;;54.45;18.90;;;;;;;;;;4955922;28;20038;-57
2022/05/07 05:16:48;;;;;;;46.80;18.90;;;;;;;;;;4956679;28;20692;-59
2022/05/07 05:19:15;;;;;;;51.70;19.30;;;;;;;;;;4956667;28;20035;-58
2022/05/07 05:21:42;;;;;;;48.33;17.85;;;;;;;;;;4957031;28;20035;-56
2022/05/07 05:24:09;;;;;;;50.78;19.05;;;;;;;;;;4970906;28;20178;-56
2022/05/07 05:26:36;;;;;;;46.70;19.15;;;;;;;;;;4956366;28;20038;-58
2022/05/07 05:29:03;;;;;;;46.50;18.00;;;;;;;;;;4956569;28;20039;-58
2022/05/07 05:31:30;;;;;;;48.85;18.48;;;;;;;;;;4955874;28;20042;-56
2022/05/07 05:33:58;;;;;;;51.58;19.80;;;;;;;;;;4985117;28;20062;-55
2022/05/07 05:36:26;;;;;;;49.42;18.15;;;;;;;;;;4994778;28;20026;-58
2022/05/07 05:38:54;;;;;;;42.90;17.70;;;;;;;;;;4994926;28;20412;-57
2022/05/07 05:41:21;;;;;;;44.15;16.98;;;;;;;;;;4994507;28;20030;-54
2022/05/07 05:43:48;;;;;;;42.95;17.13;;;;;;;;;;4995121;28;20097;-58
2022/05/07 05:46:15;;;;;;;43.83;17.00;;;;;;;;;;4977362;28;20026;-58
2022/05/07 05:48:42;;;;;;;41.65;17.42;;;;;;;;;;4994830;28;20583;-57
2022/05/07 05:51:09;;;;;;;41.60;15.35;;;;;;;;;;4995191;28;20484;-54
2022/05/07 05:53:36;;;;;;;48.78;17.25;;;;;;;;;;4994444;28;20396;-58
2022/05/07 05:56:03;;;;;;;44.90;16.17;;;;;;;;;;4994444;28;20054;-59
2022/05/07 05:58:33;;;;;;;41.42;16.15;;;;;;;;;;4994849;28;20034;-59
2022/05/07 06:01:02;;;;;;;42.45;16.67;;;;;;;;;;4976455;28;20041;-56
2022/05/07 06:03:30;;;;;;;42.05;16.70;;;;;;;;;;4981569;28;20377;-47
2022/05/07 06:05:57;;;;;;;45.13;16.17;;;;;;;;;;5008923;28;20037;-57
2022/05/07 06:08:24;;;;;;;39.50;15.75;;;;;;;;;;4996726;28;20037;-57
2022/05/07 06:10:52;;;;;;;37.47;15.60;;;;;;;;;;4993244;28;20035;-48
2022/05/07 06:13:19;;;;;;;36.70;16.35;;;;;;;;;;4993940;28;20026;-49
2022/05/07 06:15:51;;;;;;;36.47;15.80;;;;;;;;;;4994753;28;20030;-50
2022/05/07 06:18:21;;;;;;;41.63;15.57;;;;;;;;;;4994789;28;20033;-51
2022/05/07 06:20:50;;;;;;;35.33;15.45;;;;;;;;;;4975884;28;20030;-48
2022/05/07 06:23:17;;;;;;;38.05;15.70;;;;;;;;;;4992803;28;20129;-52
2022/05/07 06:28:29;;;;;;;37.67;14.95;;;;;;;;;;4994568;28;20064;-52
2022/05/07 06:33:32;;;;;;;30.10;14.30;;;;;;;;;;4988159;28;20148;-43
2022/05/07 06:35:59;;;;;;;32.50;13.73;;;;;;;;;;4993607;28;20035;-44
2022/05/07 06:38:26;;;;;;;29.58;13.73;;;;;;;;;;4994318;28;20034;-43
2022/05/07 06:40:56;;;;;;;35.53;14.88;;;;;;;;;;4993851;28;20038;-42
2022/05/07 06:43:23;;;;;;;31.05;12.90;;;;;;;;;;4993353;28;20038;-41
2022/05/07 06:45:50;;;;;;;40.47;15.27;;;;;;;;;;4994218;28;20054;-41
2022/05/07 06:48:17;;;;;;;26.85;13.43;;;;;;;;;;4993250;28;20030;-42
2022/05/07 06:50:44;;;;;;;34.38;14.20;;;;;;;;;;4993723;28;20038;-42
2022/05/07 06:53:11;;;;;;;32.42;12.65;;;;;;;;;;4993499;28;20026;-42
2022/05/07 06:55:54;;;;;;;30.13;12.38;;;;;;;;;;4993636;28;20030;-42
2022/05/07 06:58:22;;;;;;;26.88;12.57;;;;;;;;;;4993682;28;20365;-42
2022/05/07 07:00:49;;;;;;;25.35;12.60;;;;;;;;;;4993318;28;20116;-41
2022/05/07 07:03:16;;;;;;;32.00;12.95;;;;;;;;;;4993527;28;20546;-43
2022/05/07 07:05:43;;;;;;;32.47;13.07;;;;;;;;;;4989926;28;20033;-43
2022/05/07 07:08:13;;;;;;;27.95;12.15;;;;;;;;;;4992591;28;20034;-43
2022/05/07 07:10:43;;;;;;;25.63;12.48;;;;;;;;;;4993203;28;20101;-43
2022/05/07 07:13:10;;;;;;;25.30;11.80;;;;;;;;;;4993499;28;20030;-43
2022/05/07 07:15:39;;;;;;;23.92;12.15;;;;;;;;;;4993042;28;20061;-44
2022/05/07 07:18:09;;;;;;;25.27;11.43;;;;;;;;;;4993695;28;20034;-47
2022/05/07 07:20:43;;;;;;;27.45;11.23;;;;;;;;;;4992588;28;20039;-49
2022/05/07 07:23:11;;;;;;;25.40;11.30;;;;;;;;;;4993548;28;20105;-48
2022/05/07 07:25:42;;;;;;;24.42;11.52;;;;;;;;;;4993206;28;20507;-46
2022/05/07 07:28:09;;;;;;;23.88;11.13;;;;;;;;;;4993009;28;20034;-48
2022/05/07 07:30:36;;;;;;;22.48;11.10;;;;;;;;;;4993552;28;20050;-48
2022/05/07 07:33:04;;;;;;;29.75;12.15;;;;;;;;;;4991948;28;20054;-44
2022/05/07 07:35:32;;;;;;;25.27;10.73;;;;;;;;;;4993302;28;20118;-45
2022/05/07 07:37:59;;;;;;;23.25;10.10;;;;;;;;;;4992713;28;20023;-44
2022/05/07 07:40:26;;;;;;;26.27;10.05;;;;;;;;;;4993228;28;20065;-44
2022/05/07 07:42:53;;;;;;;22.02;10.68;;;;;;;;;;4992254;28;20418;-43
2022/05/07 07:48:05;;;;;;;26.02;10.95;;;;;;;;;;4992308;28;20089;-44
2022/05/07 07:50:36;;;;;;;24.83;10.70;;;;;;;;;;4993162;28;20121;-43
2022/05/07 07:53:04;;;;;;;24.75;10.32;;;;;;;;;;4993048;28;20022;-44
2022/05/07 07:55:31;;;;;;;21.85;9.27;;;;;;;;;;4992344;28;20029;-41
2022/05/07 07:57:59;;;;;;;19.05;10.23;;;;;;;;;;4992503;28;20077;-42
2022/05/07 08:00:27;;;;;;;23.08;10.30;;;;;;;;;;4991397;28;20096;-42
2022/05/07 08:02:55;;;;;;;18.33;8.75;;;;;;;;;;4992244;28;20030;-42
2022/05/07 08:05:26;;;;;;;18.83;9.35;;;;;;;;;;4992809;28;20033;-41
2022/05/07 08:13:25;;;;;;;21.38;8.75;;;;;;;;;;4993241;28;20557;-41
2022/05/07 08:15:52;;;;;;;19.88;9.10;;;;;;;;;;4992328;28;20057;-42
2022/05/07 08:18:19;;;;;;;21.60;8.57;;;;;;;;;;4992124;28;20381;-43
2022/05/07 08:20:46;;;;;;;19.10;9.02;;;;;;;;;;4992911;28;20105;-43
2022/05/07 08:23:13;;;;;;;16.88;8.50;;;;;;;;;;4992032;28;20364;-47
2022/05/07 08:25:40;;;;;;;18.60;8.77;;;;;;;;;;4992685;28;20030;-43
2022/05/07 08:28:07;;;;;;;19.30;9.30;;;;;;;;;;4992803;28;20081;-44
2022/05/07 08:30:36;;;;;;;19.17;8.20;;;;;;;;;;4991879;28;20043;-44
2022/05/07 08:33:04;;;;;;;14.65;8.18;;;;;;;;;;4992337;28;20050;-41
2022/05/07 08:35:31;;;;;;;21.45;8.52;;;;;;;;;;4991989;28;20054;-41
2022/05/07 08:37:58;;;;;;;19.08;8.25;;;;;;;;;;4992579;28;20033;-41
2022/05/07 08:40:27;;;;;;;16.27;8.13;;;;;;;;;;4992331;28;20038;-42
2022/05/07 08:42:55;;;;;;;20.42;8.15;;;;;;;;;;4992528;28;20023;-41
2022/05/07 08:45:22;;;;;;;15.40;7.45;;;;;;;;;;4991895;28;20061;-43
2022/05/07 08:47:53;;;;;;;15.88;7.97;;;;;;;;;;4995781;28;20026;-42
2022/05/07 08:50:20;;;;;;;15.23;6.97;;;;;;;;;;4995479;28;20057;-42
2022/05/07 08:52:47;;;;;;;18.27;7.47;;;;;;;;;;4995701;28;20027;-42
2022/05/07 08:55:16;;;;;;;16.10;7.43;;;;;;;;;;4995957;28;20042;-41
2022/05/07 08:57:45;;;;;;;16.75;7.95;;;;;;;;;;4995679;28;20049;-42
2022/05/07 09:00:13;;;;;;;16.25;8.02;;;;;;;;;;4995809;28;20046;-42
2022/05/07 09:02:42;;;;;;;14.65;7.82;;;;;;;;;;4995858;28;20477;-45
2022/05/07 09:05:13;;;;;;;17.75;8.02;;;;;;;;;;4995590;28;20112;-47
2022/05/07 09:07:41;;;;;;;14.05;7.10;;;;;;;;;;4995892;28;20046;-42
2022/05/07 09:10:11;;;;;;;15.90;7.30;;;;;;;;;;4995340;28;20117;-48
2022/05/07 09:12:39;;;;;;;15.73;7.00;;;;;;;;;;4995702;28;20396;-42
2022/05/07 09:15:07;;;;;;;12.52;6.60;;;;;;;;;;4995869;28;20030;-47
2022/05/07 09:17:35;;;;;;;14.68;7.03;;;;;;;;;;4995198;28;20057;-45
2022/05/07 09:20:15;;;;;;;17.27;7.53;;;;;;;;;;4995486;28;20399;-42
2022/05/07 09:22:53;;;;;;;13.75;6.18;;;;;;;;;;4995181;28;20046;-42
2022/05/07 09:25:21;;;;;;;10.45;6.25;;;;;;;;;;4995667;28;20178;-41
2022/05/07 09:27:51;;;;;;;12.55;6.28;;;;;;;;;;4994858;28;20105;-41
2022/05/07 09:30:23;;;;;;;13.50;6.57;;;;;;;;;;4995661;28;20113;-41
2022/05/07 09:32:51;;;;;;;;;;;;;;;;;;4994998;28;20221;-41
2022/05/07 09:38:03;;;;;;;13.50;6.60;;;;;;;;;;4995760;28;20595;-42
2022/05/07 09:40:31;;;;;;;11.85;6.28;;;;;;;;;;4994994;28;20034;-42
2022/05/07 09:42:59;;;;;;;12.55;6.25;;;;;;;;;;4995216;28;20088;-41
2022/05/07 09:45:27;;;;;;;12.63;6.75;;;;;;;;;;4994479;28;20042;-41
2022/05/07 09:48:01;;;;;;;9.27;5.55;;;;;;;;;;4995470;28;20026;-42
2022/05/07 09:58:47;;;;;;;11.98;5.40;;;;;;;;;;4993193;28;20639;-42
2022/05/07 10:01:20;;;;;;;11.50;4.82;;;;;;;;;;4995117;28;20042;-42
2022/05/07 10:04:08;;;;;;;11.55;5.15;;;;;;;;;;4994858;28;20042;-42
2022/05/07 10:06:45;;;;;;;13.45;5.65;;;;;;;;;;4994831;28;20034;-42
2022/05/07 10:09:15;;;;;;;10.02;5.10;;;;;;;;;;4994175;28;20037;-42
2022/05/07 10:11:44;;;;;;;9.77;4.50;;;;;;;;;;4994924;28;20027;-41
2022/05/07 10:14:13;;;;;;;13.32;5.88;;;;;;;;;;4994457;28;20018;-41
2022/05/07 10:16:41;;;;;;;12.98;5.20;;;;;;;;;;4992922;28;20035;-41
2022/05/07 10:19:11;;;;;;;9.77;4.65;;;;;;;;;;4994513;28;20041;-41
2022/05/07 10:21:38;;;;;;;10.63;4.85;;;;;;;;;;4994737;28;20038;-41
2022/05/07 10:24:05;;;;;;;10.05;5.10;;;;;;;;;;4993962;28;20030;-42
2022/05/07 10:26:45;;;;;;;7.68;4.72;;;;;;;;;;4993931;28;20042;-42
2022/05/07 10:29:24;;;;;;;9.23;4.57;;;;;;;;;;4994600;28;20034;-44
2022/05/07 10:32:02;;;;;;;11.82;4.78;;;;;;;;;;4993893;28;20054;-42
2022/05/07 10:34:29;;;;;;;10.68;4.63;;;;;;;;;;4993374;28;20027;-43
2022/05/07 10:37:04;;;;;;;9.35;4.40;;;;;;;;;;4994132;28;20042;-42
2022/05/07 10:39:31;;;;;;;12.60;4.93;;;;;;;;;;4993967;28;20037;-42
2022/05/07 10:42:01;;;;;;;9.07;4.38;;;;;;;;;;4994454;28;20037;-42
2022/05/07 10:44:32;;;;;;;8.23;4.43;;;;;;;;;;4993381;28;20037;-42
2022/05/07 10:47:28;;;;;;;8.35;4.88;;;;;;;;;;4994336;28;20070;-44
2022/05/07 10:49:56;;;;;;;12.00;4.68;;;;;;;;;;4984790;28;20096;-42
2022/05/07 10:52:31;;;;;;;8.63;4.18;;;;;;;;;;4994059;28;20018;-46
2022/05/07 10:55:16;;;;;;;9.20;4.55;;;;;;;;;;4993820;28;20035;-45
2022/05/07 10:57:47;;;;;;;10.07;4.30;;;;;;;;;;4993070;28;20030;-42
2022/05/07 11:00:16;;;;;;;7.93;4.43;;;;;;;;;;4994173;28;20100;-45
2022/05/07 11:02:43;;;;;;;8.32;4.25;;;;;;;;;;4993170;28;20100;-44
2022/05/07 11:05:11;;;;;;;7.28;3.97;;;;;;;;;;4993940;28;20030;-43
2022/05/07 11:07:39;;;;;;;8.40;4.90;;;;;;;;;;4993866;28;20039;-41
2022/05/07 11:10:07;;;;;;;11.57;4.68;;;;;;;;;;4993433;28;20424;-42
2022/05/07 11:12:38;;;;;;;9.00;4.38;;;;;;;;;;4993144;28;20022;-47
2022/05/07 11:15:06;;;;;;;8.47;4.63;;;;;;;;;;4992769;28;20126;-43
2022/05/07 11:17:40;;;;;;;7.07;4.55;;;;;;;;;;4993861;28;20316;-47
2022/05/07 11:20:08;;;;;;;9.40;4.63;;;;;;;;;;4993383;28;20069;-42
2022/05/07 11:22:39;;;;;;;7.32;4.50;;;;;;;;;;4991538;28;20554;-42
2022/05/07 11:25:07;;;;;;;9.13;4.53;;;;;;;;;;4993567;28;20031;-42
2022/05/07 11:27:34;;;;;;;8.73;4.85;;;;;;;;;;4992362;28;20061;-44
2022/05/07 11:30:04;;;;;;;7.22;4.28;;;;;;;;;;4992836;28;20485;-42
2022/05/07 11:32:41;;;;;;;7.15;4.45;;;;;;;;;;4992768;28;20394;-44
2022/05/07 11:35:09;;;;;;;7.75;4.53;;;;;;;;;;5009078;28;20116;-43
2022/05/07 11:37:42;;;;;;;7.35;4.40;;;;;;;;;;5012818;28;20123;-45
2022/05/07 11:40:10;;;;;;;7.15;4.13;;;;;;;;;;5011976;28;20392;-44
2022/05/07 11:42:43;;;;;;;7.78;4.75;;;;;;;;;;5012149;28;20026;-44
2022/05/07 11:45:26;;;;;;;9.30;4.70;;;;;;;;;;5011921;28;20065;-45
2022/05/07 11:48:04;;;;;;;7.65;4.05;;;;;;;;;;5012076;28;20037;-42
2022/05/07 11:50:32;;;;;;;9.57;4.95;;;;;;;;;;5012080;28;20038;-44
2022/05/07 11:53:19;;;;;;;13.48;4.43;;;;;;;;;;5010717;28;20490;-42
2022/05/07 11:55:47;;;;;;;13.73;5.38;;;;;;;;;;5003350;28;20156;-42
2022/05/07 11:58:18;;;;;;;11.88;4.30;;;;;;;;;;4990656;28;20384;-43
2022/05/07 12:00:46;;;;;;;13.85;5.40;;;;;;;;;;4991567;28;20034;-43
2022/05/07 12:03:16;;;;;;;10.85;3.95;;;;;;;;;;4992124;28;20022;-42
2022/05/07 12:05:44;;;;;;;12.00;5.10;;;;;;;;;;4991309;28;20038;-44
2022/05/07 12:08:16;;;;;;;11.20;4.75;;;;;;;;;;4991908;28;20472;-47
2022/05/07 12:10:43;;;;;;;14.53;5.63;;;;;;;;;;4991677;28;20030;-49
2022/05/07 12:13:10;;;;;;;17.98;5.93;;;;;;;;;;4991544;28;20026;-44
2022/05/07 12:18:24;;;;;;;12.82;5.20;;;;;;;;;;4991609;28;20049;-46
2022/05/07 12:20:52;;;;;;;15.10;5.93;;;;;;;;;;4991666;28;20042;-43
2022/05/07 12:31:35;;;;;;;15.00;5.45;;;;;;;;;;4994715;28;20108;-46
2022/05/07 12:34:04;;;;;;;20.58;5.50;;;;;;;;;;4995901;28;20027;-43
2022/05/07 12:36:32;;;;;;;15.15;6.32;;;;;;;;;;4994758;28;20444;-45
2022/05/07 12:38:59;;;;;;;15.60;5.65;;;;;;;;;;4995470;28;20030;-46
2022/05/07 12:41:32;;;;;;;10.13;5.32;;;;;;;;;;4993902;28;20081;-46
2022/05/07 12:44:00;;;;;;;12.55;5.63;;;;;;;;;;4994804;28;20022;-43
2022/05/07 12:46:27;;;;;;;10.27;5.30;;;;;;;;;;4994990;28;20049;-45
2022/05/07 12:48:57;;;;;;;11.70;4.93;;;;;;;;;;4995655;28;20034;-48
2022/05/07 12:51:27;;;;;;;16.15;5.88;;;;;;;;;;4995408;28;20393;-48
2022/05/07 12:53:54;;;;;;;12.93;4.97;;;;;;;;;;4994728;28;20039;-43
2022/05/07 12:56:24;;;;;;;11.65;4.93;;;;;;;;;;4995831;28;20026;-42
2022/05/07 12:58:52;;;;;;;13.98;5.63;;;;;;;;;;4993939;28;20031;-45
2022/05/07 13:01:19;;;;;;;15.20;5.32;;;;;;;;;;4994612;28;20026;-44
2022/05/07 13:03:46;;;;;;;11.25;4.85;;;;;;;;;;4995659;28;20030;-44
2022/05/07 13:06:13;;;;;;;9.20;4.75;;;;;;;;;;4995038;28;20076;-45
2022/05/07 13:08:40;;;;;;;11.60;4.78;;;;;;;;;;4994798;28;20029;-44
2022/05/07 13:11:07;;;;;;;12.15;4.72;;;;;;;;;;4993659;28;20061;-42
2022/05/07 13:13:34;;;;;;;11.07;5.22;;;;;;;;;;4994678;28;20019;-45
2022/05/07 13:16:01;;;;;;;12.57;5.03;;;;;;;;;;4994579;28;20027;-47
2022/05/07 13:18:28;;;;;;;10.80;4.50;;;;;;;;;;4995189;28;20041;-50
2022/05/07 13:20:55;;;;;;;11.00;4.70;;;;;;;;;;4994347;28;20109;-48
2022/05/07 13:23:22;;;;;;;10.95;5.28;;;;;;;;;;4992779;28;20030;-45
2022/05/07 13:25:49;;;;;;;8.65;4.13;;;;;;;;;;4994657;28;20027;-43
2022/05/07 13:28:17;;;;;;;13.05;5.13;;;;;;;;;;4994208;28;20022;-46
2022/05/07 13:30:44;;;;;;;11.43;4.72;;;;;;;;;;4994598;28;20092;-45
2022/05/07 13:33:11;;;;;;;10.75;4.97;;;;;;;;;;4993737;28;20045;-48
2022/05/07 13:35:38;;;;;;;11.43;4.35;;;;;;;;;;4994211;28;20029;-44
2022/05/07 13:38:05;;;;;;;13.00;4.93;;;;;;;;;;4994238;28;20432;-44
2022/05/07 13:40:32;;;;;;;10.70;4.28;;;;;;;;;;4994321;28;20116;-46
2022/05/07 13:43:02;;;;;;;13.02;4.07;;;;;;;;;;4994126;28;20081;-44
2022/05/07 13:45:30;;;;;;;8.90;4.25;;;;;;;;;;4995886;28;20108;-42
2022/05/07 13:47:57;;;;;;;8.23;3.80;;;;;;;;;;5002555;28;20034;-42
2022/05/07 13:50:24;;;;;;;10.38;4.57;;;;;;;;;;5000986;28;20042;-44
2022/05/07 13:52:51;;;;;;;10.38;4.78;;;;;;;;;;4999202;28;20034;-44
2022/05/07 13:55:18;;;;;;;11.48;4.80;;;;;;;;;;5002707;28;20096;-46
2022/05/07 13:57:45;;;;;;;13.77;4.13;;;;;;;;;;5002706;28;20037;-48
2022/05/07 14:00:16;;;;;;;10.30;4.00;;;;;;;;;;4999061;28;20033;-50
2022/05/07 14:02:46;;;;;;;7.90;3.35;;;;;;;;;;5006836;28;20065;-45
2022/05/07 14:05:14;;;;;;;8.77;3.53;;;;;;;;;;5013134;28;20498;-47
2022/05/07 14:07:41;;;;;;;11.98;4.45;;;;;;;;;;5013242;28;20026;-49
2022/05/07 14:10:09;;;;;;;10.57;4.15;;;;;;;;;;5013654;28;20125;-48
2022/05/07 14:12:36;;;;;;;16.15;5.15;;;;;;;;;;5012790;28;20518;-49
2022/05/07 14:15:03;;;;;;;9.68;4.32;;;;;;;;;;5013573;28;20046;-47
2022/05/07 14:17:31;;;;;;;11.85;4.20;;;;;;;;;;5013652;28;20022;-46
2022/05/07 14:19:59;;;;;;;13.30;4.82;;;;;;;;;;5012660;28;20048;-45
2022/05/07 14:22:27;;;;;;;9.88;4.32;;;;;;;;;;5013904;28;20059;-45
2022/05/07 14:24:57;;;;;;;8.00;4.25;;;;;;;;;;5012786;28;20046;-45
2022/05/07 14:27:24;;;;;;;11.45;4.35;;;;;;;;;;5013274;28;20468;-45
2022/05/07 14:29:51;;;;;;;14.18;4.50;;;;;;;;;;5013289;28;20373;-46
2022/05/07 14:32:20;;;;;;;11.52;4.65;;;;;;;;;;5012739;28;20046;-45
2022/05/07 14:34:47;;;;;;;12.20;4.10;;;;;;;;;;5012303;28;20088;-44
2022/05/07 14:37:14;;;;;;;14.18;4.45;;;;;;;;;;5013486;28;20025;-42
2022/05/07 14:39:41;;;;;;;8.82;3.60;;;;;;;;;;5012840;28;20372;-46
2022/05/07 14:42:09;;;;;;;8.18;4.28;;;;;;;;;;5012287;28;20072;-42
2022/05/07 14:44:37;;;;;;;10.52;4.22;;;;;;;;;;5012359;28;20064;-46
2022/05/07 14:47:05;;;;;;;8.13;3.80;;;;;;;;;;5013000;28;20443;-48
2022/05/07 14:49:32;;;;;;;14.27;4.05;;;;;;;;;;5012302;28;20779;-44
2022/05/07 14:51:58;;;;;;;11.40;4.60;;;;;;;;;;5011090;28;20061;-50
2022/05/07 14:54:26;;;;;;;9.55;4.38;;;;;;;;;;5012155;28;20113;-47
2022/05/07 14:56:53;;;;;;;11.85;4.03;;;;;;;;;;5012282;28;20022;-48
2022/05/07 14:59:19;;;;;;;6.40;3.33;;;;;;;;;;5012176;28;20022;-48
2022/05/07 15:01:47;;;;;;;13.05;4.80;;;;;;;;;;5012102;28;20030;-44
2022/05/07 15:04:14;;;;;;;9.50;4.43;;;;;;;;;;5012423;28;20037;-44
2022/05/07 15:06:41;;;;;;;10.48;3.97;;;;;;;;;;5012636;28;20041;-43
2022/05/07 15:11:54;;;;;;;8.80;3.97;;;;;;;;;;5012223;28;20076;-44
2022/05/07 15:14:21;;;;;;;6.88;3.70;;;;;;;;;;5012043;28;20030;-43
2022/05/07 15:16:48;;;;;;;8.27;3.95;;;;;;;;;;5012133;28;20030;-44
2022/05/07 15:19:15;;;;;;;9.18;4.15;;;;;;;;;;5010235;28;20112;-45